createdAt,value
2018-01-29T00:01:47.987Z,101909.59
2018-01-29T00:04:15.509Z,101909.08
2018-01-29T00:06:43.044Z,101906.41
2018-01-29T00:09:10.598Z,101906.77
2018-01-29T00:11:38.171Z,101897.76
2018-01-29T00:14:05.703Z,101900.09
2018-01-29T00:16:33.304Z,101890.27
2018-01-29T00:19:00.834Z,101897.78
2018-01-29T00:21:28.355Z,101900.48
2018-01-29T00:23:56.024Z,101887.05
2018-01-29T00:26:23.548Z,101890.59
2018-01-29T00:28:51.073Z,101886.11
2018-01-29T00:31:18.596Z,101879.48
2018-01-29T00:33:46.108Z,101882.06
2018-01-29T00:36:13.635Z,101885.23
2018-01-29T00:38:41.282Z,101893.24
2018-01-29T00:41:08.834Z,101892.23
2018-01-29T00:43:36.353Z,101890.00
2018-01-29T00:46:03.888Z,101890.47
2018-01-29T00:48:31.419Z,101883.29
2018-01-29T00:50:58.948Z,101885.11
2018-01-29T00:53:26.469Z,101881.07
2018-01-29T00:55:53.979Z,101880.98
2018-01-29T00:58:21.510Z,101883.27
2018-01-29T01:00:49.116Z,101873.78
2018-01-29T01:03:16.675Z,101882.72
2018-01-29T01:05:44.235Z,101882.70
2018-01-29T01:08:11.777Z,101888.08
2018-01-29T01:10:39.294Z,101899.16
2018-01-29T01:13:06.828Z,101899.24
2018-01-29T01:15:34.337Z,101895.15
2018-01-29T01:18:01.862Z,101894.70
2018-01-29T01:20:30.324Z,101899.97
2018-01-29T01:22:57.888Z,101893.20
2018-01-29T01:25:25.387Z,101897.30
2018-01-29T01:27:53.022Z,101888.80
2018-01-29T01:30:20.653Z,101891.97
2018-01-29T01:32:48.160Z,101891.92
2018-01-29T01:35:15.705Z,101884.77
2018-01-29T01:37:43.229Z,101884.67
2018-01-29T01:40:10.792Z,101885.94
2018-01-29T01:42:38.306Z,101889.19
2018-01-29T01:45:05.841Z,101876.20
2018-01-29T01:47:33.380Z,101888.70
2018-01-29T01:50:00.898Z,101874.37
2018-01-29T01:52:28.448Z,101883.24
2018-01-29T01:54:55.973Z,101878.75
2018-01-29T01:57:23.494Z,101894.80
2018-01-29T01:59:51.014Z,101883.28
2018-01-29T02:02:18.537Z,101874.84
2018-01-29T02:04:46.049Z,101879.63
2018-01-29T02:07:13.645Z,101861.75
2018-01-29T02:09:41.158Z,101872.00
2018-01-29T02:12:08.680Z,101874.76
2018-01-29T02:14:36.205Z,101861.75
2018-01-29T02:17:03.728Z,101870.71
2018-01-29T02:19:31.247Z,101863.50
2018-01-29T02:21:58.765Z,101863.05
2018-01-29T02:24:26.303Z,101864.41
2018-01-29T02:26:53.824Z,101865.68
2018-01-29T02:29:21.372Z,101855.42
2018-01-29T02:31:48.894Z,101849.18
2018-01-29T02:34:16.498Z,101843.81
2018-01-29T02:36:44.017Z,101841.96
2018-01-29T02:39:11.539Z,101846.50
2018-01-29T02:41:39.065Z,101839.30
2018-01-29T02:44:06.583Z,101833.94
2018-01-29T02:46:34.107Z,101833.07
2018-01-29T02:49:01.629Z,101835.69
2018-01-29T02:51:29.145Z,101831.25
2018-01-29T02:53:56.666Z,101831.28
2018-01-29T02:56:24.237Z,101824.55
2018-01-29T02:58:51.733Z,101815.64
2018-01-29T03:01:19.352Z,101816.55
2018-01-29T03:03:46.877Z,101814.72
2018-01-29T03:06:14.411Z,101811.55
2018-01-29T03:08:41.961Z,101815.62
2018-01-29T03:11:09.492Z,101815.20
2018-01-29T03:13:37.048Z,101809.87
2018-01-29T03:16:04.609Z,101809.44
2018-01-29T03:18:32.168Z,101809.02
2018-01-29T03:20:59.702Z,101799.92
2018-01-29T03:23:27.245Z,101802.19
2018-01-29T03:25:54.777Z,101808.38
2018-01-29T03:28:22.408Z,101806.14
2018-01-29T03:30:49.929Z,101801.27
2018-01-29T03:33:17.497Z,101804.87
2018-01-29T03:35:45.085Z,101805.33
2018-01-29T03:38:12.614Z,101797.17
2018-01-29T03:40:40.138Z,101790.38
2018-01-29T03:43:07.676Z,101785.06
2018-01-29T03:45:35.213Z,101789.13
2018-01-29T03:48:02.735Z,101783.28
2018-01-29T03:50:30.278Z,101791.74
2018-01-29T03:52:57.897Z,101779.77
2018-01-29T03:55:25.420Z,101783.77
2018-01-29T03:57:53.032Z,101782.80
2018-01-29T04:00:20.554Z,101778.77
2018-01-29T04:02:48.106Z,101779.23
2018-01-29T04:05:15.617Z,101775.27
2018-01-29T04:07:43.130Z,101770.83
2018-01-29T04:10:10.653Z,101770.31
2018-01-29T04:12:38.169Z,101768.63
2018-01-29T04:15:05.687Z,101772.14
2018-01-29T04:17:33.289Z,101766.85
2018-01-29T04:20:00.805Z,101775.17
2018-01-29T04:22:28.322Z,101776.05
2018-01-29T04:24:55.837Z,101766.76
2018-01-29T04:27:23.357Z,101763.22
2018-01-29T04:29:50.868Z,101768.09
2018-01-29T04:32:18.394Z,101767.05
2018-01-29T04:34:46.027Z,101758.10
2018-01-29T04:37:13.580Z,101758.94
2018-01-29T04:39:41.109Z,101755.75
2018-01-29T04:42:08.700Z,101743.38
2018-01-29T04:44:36.229Z,101755.33
2018-01-29T04:47:03.749Z,101751.41
2018-01-29T04:49:31.281Z,101750.86
2018-01-29T04:51:58.834Z,101754.89
2018-01-29T04:54:26.404Z,101754.94
2018-01-29T04:56:54.056Z,101750.09
2018-01-29T04:59:21.591Z,101747.36
2018-01-29T05:01:49.182Z,101738.84
2018-01-29T05:04:16.695Z,101742.89
2018-01-29T05:06:44.299Z,101735.23
2018-01-29T05:09:11.827Z,101735.31
2018-01-29T05:11:39.344Z,101721.46
2018-01-29T05:14:06.974Z,101726.52
2018-01-29T05:16:34.539Z,101727.31
2018-01-29T05:19:02.069Z,101725.00
2018-01-29T05:21:29.631Z,101717.16
2018-01-29T05:23:57.160Z,101719.22
2018-01-29T05:26:24.685Z,101719.33
2018-01-29T05:28:52.231Z,101721.64
2018-01-29T05:31:19.767Z,101717.05
2018-01-29T05:33:47.285Z,101725.63
2018-01-29T05:36:23.365Z,101715.42
2018-01-29T05:38:52.667Z,101720.77
2018-01-29T05:41:20.197Z,101721.20
2018-01-29T05:43:47.734Z,101726.25
2018-01-29T05:46:15.263Z,101726.34
2018-01-29T05:48:42.780Z,101724.45
2018-01-29T05:51:10.315Z,101736.19
2018-01-29T05:53:37.836Z,101734.83
2018-01-29T05:56:05.427Z,101717.44
2018-01-29T05:58:32.988Z,101725.43
2018-01-29T06:01:00.536Z,101718.69
2018-01-29T06:03:28.058Z,101724.90
2018-01-29T06:05:55.570Z,101712.98
2018-01-29T06:08:23.085Z,101727.56
2018-01-29T06:10:50.689Z,101716.06
2018-01-29T06:13:18.206Z,101726.75
2018-01-29T06:15:45.732Z,101719.59
2018-01-29T06:18:13.250Z,101714.64
2018-01-29T06:20:40.785Z,101712.89
2018-01-29T06:23:08.313Z,101711.94
2018-01-29T06:25:35.834Z,101706.97
2018-01-29T06:28:03.408Z,101691.88
2018-01-29T06:30:30.963Z,101698.45
2018-01-29T06:32:58.476Z,101690.83
2018-01-29T06:35:26.005Z,101694.31
2018-01-29T06:37:53.645Z,101693.05
2018-01-29T06:40:21.169Z,101690.78
2018-01-29T06:42:48.689Z,101696.11
2018-01-29T06:45:16.326Z,101681.78
2018-01-29T06:47:43.836Z,101688.09
2018-01-29T06:50:11.373Z,101685.88
2018-01-29T06:52:39.017Z,101692.82
2018-01-29T06:55:06.528Z,101702.25
2018-01-29T06:57:34.085Z,101696.77
2018-01-29T07:00:01.743Z,101687.41
2018-01-29T07:02:29.228Z,101702.47
2018-01-29T07:04:56.751Z,101686.02
2018-01-29T07:07:24.366Z,101686.77
2018-01-29T07:09:51.918Z,101697.52
2018-01-29T07:12:19.435Z,101690.40
2018-01-29T07:14:46.944Z,101684.47
2018-01-29T07:17:14.499Z,101690.25
2018-01-29T07:19:42.013Z,101667.86
2018-01-29T07:22:09.629Z,101665.64
2018-01-29T07:24:37.179Z,101666.60
2018-01-29T07:27:04.736Z,101665.23
2018-01-29T07:29:32.271Z,101665.15
2018-01-29T07:31:59.797Z,101662.01
2018-01-29T07:34:27.349Z,101656.09
2018-01-29T07:36:54.864Z,101644.16
2018-01-29T07:39:22.368Z,101646.22
2018-01-29T07:41:49.913Z,101633.63
2018-01-29T07:44:17.448Z,101649.83
2018-01-29T07:46:45.036Z,101642.58
2018-01-29T07:49:12.555Z,101641.22
2018-01-29T07:51:40.066Z,101637.68
2018-01-29T07:54:07.603Z,101638.99
2018-01-29T07:56:35.119Z,101635.82
2018-01-29T07:59:02.666Z,101644.25
2018-01-29T08:01:30.204Z,101620.05
2018-01-29T08:03:57.723Z,101623.14
2018-01-29T08:06:25.259Z,101628.02
2018-01-29T08:08:52.798Z,101614.72
2018-01-29T08:11:20.317Z,101615.08
2018-01-29T08:13:47.843Z,101608.26
2018-01-29T08:16:15.422Z,101598.84
2018-01-29T08:18:42.991Z,101588.40
2018-01-29T08:21:10.525Z,101594.70
2018-01-29T08:23:38.032Z,101594.99
2018-01-29T08:26:05.546Z,101585.48
2018-01-29T08:28:33.083Z,101585.43
2018-01-29T08:31:01.072Z,101582.22
2018-01-29T08:33:28.685Z,101582.30
2018-01-29T08:35:56.192Z,101584.44
2018-01-29T08:38:23.708Z,101583.24
2018-01-29T08:40:51.220Z,101575.98
2018-01-29T08:43:18.725Z,101583.63
2018-01-29T08:45:46.241Z,101584.96
2018-01-29T08:48:13.774Z,101582.19
2018-01-29T08:50:41.377Z,101567.95
2018-01-29T08:53:08.936Z,101568.22
2018-01-29T08:55:36.496Z,101567.66
2018-01-29T08:58:04.013Z,101571.40
2018-01-29T09:00:31.539Z,101559.95
2018-01-29T09:02:59.061Z,101562.58
2018-01-29T09:05:26.627Z,101549.16
2018-01-29T09:07:54.157Z,101540.62
2018-01-29T09:10:21.672Z,101540.46
2018-01-29T09:12:49.313Z,101542.13
2018-01-29T09:15:16.844Z,101539.78
2018-01-29T09:17:44.374Z,101533.31
2018-01-29T09:20:11.983Z,101539.96
2018-01-29T09:22:39.504Z,101537.12
2018-01-29T09:25:07.126Z,101537.56
2018-01-29T09:27:34.779Z,101532.98
2018-01-29T09:30:02.406Z,101532.63
2018-01-29T09:32:30.000Z,101528.78
2018-01-29T09:34:57.512Z,101527.07
2018-01-29T09:37:25.113Z,101532.73
2018-01-29T09:39:52.638Z,101531.66
2018-01-29T09:42:20.227Z,101533.70
2018-01-29T09:44:47.743Z,101538.60
2018-01-29T09:47:15.291Z,101539.47
2018-01-29T09:49:42.800Z,101540.00
2018-01-29T09:52:10.338Z,101544.81
2018-01-29T09:54:37.884Z,101554.55
2018-01-29T09:57:05.484Z,101557.40
2018-01-29T09:59:33.095Z,101556.52
2018-01-29T10:02:00.558Z,101561.58
2018-01-29T10:04:28.173Z,101564.27
2018-01-29T10:06:55.684Z,101563.73
2018-01-29T10:09:23.297Z,101560.55
2018-01-29T10:11:50.814Z,101550.53
2018-01-29T10:14:18.369Z,101560.80
2018-01-29T10:16:45.898Z,101550.78
2018-01-29T10:19:13.409Z,101549.97
2018-01-29T10:21:40.995Z,101539.03
2018-01-29T10:24:08.524Z,101540.97
2018-01-29T10:26:36.037Z,101538.69
2018-01-29T10:29:03.586Z,101538.53
2018-01-29T10:31:31.097Z,101536.11
2018-01-29T10:33:58.612Z,101540.91
2018-01-29T10:36:26.133Z,101533.41
2018-01-29T10:38:53.704Z,101537.23
2018-01-29T10:41:21.230Z,101522.67
2018-01-29T10:43:48.750Z,101525.95
2018-01-29T10:46:16.270Z,101517.30
2018-01-29T10:48:43.783Z,101529.58
2018-01-29T10:51:11.307Z,101523.14
2018-01-29T10:53:38.845Z,101514.90
2018-01-29T10:56:06.356Z,101516.05
2018-01-29T10:58:33.868Z,101507.38
2018-01-29T11:01:07.040Z,101495.33
2018-01-29T11:03:34.556Z,101499.20
2018-01-29T11:06:02.298Z,101496.67
2018-01-29T11:08:29.824Z,101494.36
2018-01-29T11:10:57.376Z,101494.89
2018-01-29T11:13:24.907Z,101501.41
2018-01-29T11:15:52.537Z,101500.47
2018-01-29T11:18:20.065Z,101505.41
2018-01-29T11:20:47.611Z,101496.51
2018-01-29T11:23:15.132Z,101498.88
2018-01-29T11:25:42.658Z,101493.36
2018-01-29T11:28:10.175Z,101499.10
2018-01-29T11:30:37.781Z,101492.95
2018-01-29T11:33:05.308Z,101481.09
2018-01-29T11:35:32.902Z,101501.72
2018-01-29T11:38:00.417Z,101498.51
2018-01-29T11:40:28.036Z,101488.98
2018-01-29T11:42:55.552Z,101491.05
2018-01-29T11:45:23.081Z,101479.41
2018-01-29T11:47:50.612Z,101459.36
2018-01-29T11:50:18.139Z,101479.71
2018-01-29T11:52:45.732Z,101463.89
2018-01-29T11:55:13.261Z,101470.19
2018-01-29T11:57:40.787Z,101462.52
2018-01-29T12:00:08.310Z,101453.06
2018-01-29T12:02:35.828Z,101438.30
2018-01-29T12:05:03.354Z,101447.69
2018-01-29T12:07:30.991Z,101454.21
2018-01-29T12:09:58.549Z,101438.55
2018-01-29T12:12:26.080Z,101442.57
2018-01-29T12:14:53.596Z,101437.67
2018-01-29T12:17:21.128Z,101436.84
2018-01-29T12:19:48.655Z,101427.48
2018-01-29T12:22:16.168Z,101422.06
2018-01-29T12:24:43.704Z,101416.16
2018-01-29T12:27:11.228Z,101413.20
2018-01-29T12:29:38.813Z,101418.04
2018-01-29T12:32:06.339Z,101398.59
2018-01-29T12:34:33.865Z,101399.02
2018-01-29T12:37:01.377Z,101405.67
2018-01-29T12:39:28.898Z,101391.36
2018-01-29T12:41:56.422Z,101390.58
2018-01-29T12:44:23.940Z,101392.05
2018-01-29T12:46:51.452Z,101381.88
2018-01-29T12:49:18.960Z,101373.05
2018-01-29T12:51:46.560Z,101370.25
2018-01-29T12:54:14.080Z,101355.43
2018-01-29T12:56:41.618Z,101349.09
2018-01-29T12:59:09.132Z,101355.27
2018-01-29T13:01:36.650Z,101341.77
2018-01-29T13:04:04.170Z,101334.50
2018-01-29T13:06:31.676Z,101313.19
2018-01-29T13:08:59.344Z,101322.63
2018-01-29T13:11:26.920Z,101323.58
2018-01-29T13:13:54.451Z,101323.72
2018-01-29T13:16:21.989Z,101325.03
2018-01-29T13:18:49.610Z,101326.95
2018-01-29T13:21:17.138Z,101318.60
2018-01-29T13:23:44.658Z,101315.48
2018-01-29T13:26:12.190Z,101303.34
2018-01-29T13:28:39.768Z,101301.46
2018-01-29T13:31:07.345Z,101308.38
2018-01-29T13:33:34.863Z,101300.98
2018-01-29T13:36:02.381Z,101303.75
2018-01-29T13:38:29.894Z,101296.41
2018-01-29T13:40:57.405Z,101291.84
2018-01-29T13:43:24.928Z,101287.99
2018-01-29T13:45:52.441Z,101294.37
2018-01-29T13:48:19.970Z,101288.57
2018-01-29T13:50:47.483Z,101281.34
2018-01-29T13:53:15.009Z,101285.95
2018-01-29T13:55:42.526Z,101272.62
2018-01-29T13:58:10.053Z,101274.59
2018-01-29T14:00:37.565Z,101281.70
2018-01-29T14:03:05.077Z,101267.37
2018-01-29T14:05:32.604Z,101264.69
2018-01-29T14:08:00.121Z,101269.22
2018-01-29T14:10:27.634Z,101259.34
2018-01-29T14:12:55.186Z,101258.77
2018-01-29T14:15:22.697Z,101249.95
2018-01-29T14:17:50.211Z,101253.21
2018-01-29T14:20:17.730Z,101245.45
2018-01-29T14:22:45.243Z,101244.44
2018-01-29T14:25:12.761Z,101236.63
2018-01-29T14:27:40.276Z,101244.03
2018-01-29T14:30:07.786Z,101226.36
2018-01-29T14:32:35.310Z,101230.86
2018-01-29T14:35:02.825Z,101221.71
2018-01-29T14:37:30.346Z,101228.89
2018-01-29T14:39:57.968Z,101233.73
2018-01-29T14:42:25.517Z,101230.31
2018-01-29T14:44:53.089Z,101225.81
2018-01-29T14:47:20.623Z,101216.59
2018-01-29T14:49:48.134Z,101223.20
2018-01-29T14:52:15.664Z,101213.25
2018-01-29T14:54:43.213Z,101224.14
2018-01-29T14:57:10.777Z,101213.94
2018-01-29T14:59:38.289Z,101228.39
2018-01-29T15:02:05.804Z,101231.61
2018-01-29T15:04:33.320Z,101210.75
2018-01-29T15:07:00.926Z,101218.30
2018-01-29T15:09:28.473Z,101221.33
2018-01-29T15:11:55.997Z,101222.64
2018-01-29T15:14:23.570Z,101222.48
2018-01-29T15:16:51.154Z,101219.75
2018-01-29T15:19:18.673Z,101217.10
2018-01-29T15:21:46.239Z,101213.92
2018-01-29T15:24:13.774Z,101222.28
2018-01-29T15:26:41.404Z,101212.63
2018-01-29T15:29:08.926Z,101207.33
2018-01-29T15:31:36.457Z,101193.41
2018-01-29T15:34:03.984Z,101195.75
2018-01-29T15:36:31.545Z,101193.56
2018-01-29T15:38:59.072Z,101192.50
2018-01-29T15:41:26.594Z,101184.84
2018-01-29T15:43:54.107Z,101182.91
2018-01-29T15:46:21.621Z,101189.55
2018-01-29T15:48:49.137Z,101182.59
2018-01-29T15:51:16.684Z,101176.49
2018-01-29T15:53:44.198Z,101164.56
2018-01-29T15:56:11.717Z,101158.17
2018-01-29T15:58:39.228Z,101150.97
2018-01-29T16:01:06.830Z,101144.53
2018-01-29T16:03:34.346Z,101155.50
2018-01-29T16:08:54.211Z,101152.15
2018-01-29T16:11:21.725Z,101144.06
2018-01-29T16:13:49.302Z,101144.50
2018-01-29T16:16:16.860Z,101148.89
2018-01-29T16:18:44.373Z,101145.78
2018-01-29T16:21:11.888Z,101134.79
2018-01-29T16:23:39.407Z,101141.25
2018-01-29T16:26:06.934Z,101145.91
2018-01-29T16:28:34.446Z,101141.09
2018-01-29T16:31:02.098Z,101153.08
2018-01-29T16:33:29.680Z,101136.16
2018-01-29T16:35:57.194Z,101149.30
2018-01-29T16:38:24.711Z,101147.22
2018-01-29T16:40:52.246Z,101132.84
2018-01-29T16:43:19.764Z,101143.98
2018-01-29T16:45:47.408Z,101138.34
2018-01-29T16:48:14.913Z,101136.31
2018-01-29T16:50:42.445Z,101126.75
2018-01-29T16:53:10.055Z,101126.72
2018-01-29T16:55:37.616Z,101133.27
2018-01-29T16:58:05.184Z,101123.27
2018-01-29T17:00:32.725Z,101121.77
2018-01-29T17:03:00.352Z,101122.17
2018-01-29T17:05:27.843Z,101124.27
2018-01-29T17:07:55.420Z,101123.14
2018-01-29T17:10:22.933Z,101124.55
2018-01-29T17:12:50.640Z,101134.89
2018-01-29T17:15:18.152Z,101118.59
2018-01-29T17:17:45.677Z,101119.62
2018-01-29T17:20:13.202Z,101109.01
2018-01-29T17:22:40.797Z,101103.62
2018-01-29T17:25:08.321Z,101099.66
2018-01-29T17:27:35.829Z,101098.14
2018-01-29T17:30:03.341Z,101105.27
2018-01-29T17:32:31.032Z,101107.70
2018-01-29T17:34:58.541Z,101107.83
2018-01-29T17:37:26.065Z,101094.56
2018-01-29T17:39:53.582Z,101090.33
2018-01-29T17:42:23.768Z,101088.65
2018-01-29T17:44:51.292Z,101078.93
2018-01-29T17:47:18.821Z,101086.03
2018-01-29T17:49:46.336Z,101079.37
2018-01-29T17:52:13.879Z,101071.00
2018-01-29T17:54:41.395Z,101062.96
2018-01-29T17:57:08.990Z,101071.02
2018-01-29T17:59:36.541Z,101070.72
2018-01-29T18:02:04.116Z,101073.33
2018-01-29T18:04:31.635Z,101058.64
2018-01-29T18:06:59.148Z,101065.02
2018-01-29T18:09:26.671Z,101065.86
2018-01-29T18:11:54.178Z,101059.23
2018-01-29T18:14:21.684Z,101052.09
2018-01-29T18:16:49.213Z,101053.47
2018-01-29T18:19:16.733Z,101053.47
2018-01-29T18:21:44.364Z,101054.00
2018-01-29T18:24:11.904Z,101056.64
2018-01-29T18:26:39.493Z,101051.45
2018-01-29T18:29:07.015Z,101054.47
2018-01-29T18:31:34.529Z,101043.16
2018-01-29T18:34:02.049Z,101039.80
2018-01-29T18:36:29.560Z,101053.38
2018-01-29T18:38:57.095Z,101048.30
2018-01-29T18:41:24.617Z,101052.41
2018-01-29T18:43:52.130Z,101043.22
2018-01-29T18:46:19.646Z,101060.43
2018-01-29T18:48:47.152Z,101056.28
2018-01-29T18:51:14.660Z,101055.29
2018-01-29T18:53:42.255Z,101050.70
2018-01-29T18:56:09.798Z,101053.73
2018-01-29T18:58:37.356Z,101051.20
2018-01-29T19:01:04.871Z,101054.34
2018-01-29T19:03:32.383Z,101050.47
2018-01-29T19:05:59.903Z,101044.91
2018-01-29T19:08:27.427Z,101036.33
2018-01-29T19:10:54.955Z,101047.22
2018-01-29T19:13:22.513Z,101039.47
2018-01-29T19:15:50.045Z,101034.50
2018-01-29T19:18:17.564Z,101042.67
2018-01-29T19:20:45.088Z,101032.59
2018-01-29T19:23:12.659Z,101037.86
2018-01-29T19:25:40.184Z,101037.44
2018-01-29T19:28:07.772Z,101037.91
2018-01-29T19:30:35.302Z,101035.87
2018-01-29T19:33:02.824Z,101031.16
2018-01-29T19:35:30.324Z,101023.70
2018-01-29T19:37:57.851Z,101031.22
2018-01-29T19:40:25.379Z,101027.86
2018-01-29T19:42:52.902Z,101037.80
2018-01-29T19:45:20.484Z,101040.09
2018-01-29T19:47:48.045Z,101027.53
2018-01-29T19:50:15.573Z,101026.52
2018-01-29T19:52:43.178Z,101027.64
2018-01-29T19:55:10.727Z,101037.28
2018-01-29T19:57:38.240Z,101032.68
2018-01-29T20:00:05.756Z,101039.38
2018-01-29T20:02:33.311Z,101036.52
2018-01-29T20:05:00.826Z,101046.09
2018-01-29T20:07:28.404Z,101050.63
2018-01-29T20:09:55.924Z,101057.98
2018-01-29T20:12:23.434Z,101076.63
2018-01-29T20:14:51.000Z,101074.63
2018-01-29T20:17:18.509Z,101087.79
2018-01-29T20:19:46.027Z,101089.00
2018-01-29T20:22:13.544Z,101075.00
2018-01-29T20:24:41.063Z,101094.34
2018-01-29T20:27:08.564Z,101091.09
2018-01-29T20:29:36.089Z,101102.50
2018-01-29T20:32:03.729Z,101113.70
2018-01-29T20:34:31.319Z,101120.12
2018-01-29T20:36:58.861Z,101120.47
2018-01-29T20:39:26.379Z,101128.95
2018-01-29T20:41:54.445Z,101128.40
2018-01-29T20:44:22.034Z,101134.72
2018-01-29T20:46:49.587Z,101136.70
2018-01-29T20:49:18.131Z,101150.69
2018-01-29T20:51:45.658Z,101141.00
2018-01-29T20:54:14.827Z,101144.27
2018-01-29T20:56:42.375Z,101153.08
2018-01-29T20:59:10.151Z,101170.95
2018-01-29T21:01:37.701Z,101170.91
2018-01-29T21:04:05.233Z,101182.12
2018-01-29T21:06:32.733Z,101195.19
2018-01-29T21:09:00.313Z,101194.29
2018-01-29T21:11:27.846Z,101198.53
2018-01-29T21:13:55.352Z,101214.68
2018-01-29T21:16:22.870Z,101210.02
2018-01-29T21:18:50.372Z,101213.06
2018-01-29T21:21:17.894Z,101221.45
2018-01-29T21:23:45.396Z,101228.23
2018-01-29T21:26:12.921Z,101227.73
2018-01-29T21:28:40.428Z,101236.20
2018-01-29T21:31:08.032Z,101250.65
2018-01-29T21:33:35.533Z,101255.00
2018-01-29T21:36:03.041Z,101264.11
2018-01-29T21:38:30.552Z,101275.30
2018-01-29T21:40:58.073Z,101272.77
2018-01-29T21:43:25.614Z,101266.29
2018-01-29T21:45:53.129Z,101261.03
2018-01-29T21:48:20.649Z,101265.50
2018-01-29T21:50:48.149Z,101276.23
2018-01-29T21:53:15.663Z,101294.52
2018-01-29T21:55:43.268Z,101284.41
2018-01-29T21:58:10.760Z,101292.32
2018-01-29T22:00:38.273Z,101286.18
2018-01-29T22:03:05.789Z,101300.08
2018-01-29T22:05:33.300Z,101312.36
2018-01-29T22:08:00.913Z,101331.13
2018-01-29T22:10:28.473Z,101331.13
2018-01-29T22:12:55.979Z,101333.83
2018-01-29T22:15:23.502Z,101344.06
2018-01-29T22:17:51.031Z,101341.55
2018-01-29T22:20:18.618Z,101342.95
2018-01-29T22:22:46.180Z,101328.28
2018-01-29T22:25:13.696Z,101350.45
2018-01-29T22:27:41.199Z,101362.11
2018-01-29T22:30:08.756Z,101375.45
2018-01-29T22:32:36.301Z,101384.83
2018-01-29T22:35:03.828Z,101371.08
2018-01-29T22:37:31.339Z,101383.03
2018-01-29T22:39:58.874Z,101388.06
2018-01-29T22:42:26.453Z,101395.12
2018-01-29T22:44:53.961Z,101403.14
2018-01-29T22:47:21.468Z,101407.17
2018-01-29T22:49:48.974Z,101403.67
2018-01-29T22:52:16.728Z,101400.45
2018-01-29T22:54:44.668Z,101405.92
2018-01-29T22:57:12.211Z,101417.98
2018-01-29T22:59:39.718Z,101411.77
2018-01-29T23:02:07.234Z,101417.27
2018-01-29T23:04:34.792Z,101429.29
2018-01-29T23:07:02.300Z,101436.93
2018-01-29T23:09:29.809Z,101444.14
2018-01-29T23:11:57.315Z,101430.03
2018-01-29T23:14:24.820Z,101461.91
2018-01-29T23:16:52.325Z,101467.28
2018-01-29T23:19:19.825Z,101466.04
2018-01-29T23:21:47.336Z,101474.89
2018-01-29T23:24:14.845Z,101477.55
2018-01-29T23:26:42.389Z,101483.44
2018-01-29T23:29:09.920Z,101487.90
2018-01-29T23:31:37.441Z,101493.67
2018-01-29T23:34:04.972Z,101496.37
2018-01-29T23:36:32.495Z,101490.98
2018-01-29T23:39:00.118Z,101499.88
2018-01-29T23:41:27.671Z,101491.48
2018-01-29T23:43:55.175Z,101495.84
2018-01-29T23:46:22.697Z,101507.79
2018-01-29T23:48:50.209Z,101506.91
2018-01-29T23:51:17.717Z,101497.52
2018-01-29T23:53:45.225Z,101510.48
2018-01-29T23:56:12.733Z,101502.45
2018-01-29T23:58:40.241Z,101515.89
